Latest Weather Observations for Cowra

IDN60801

Issued at 6:02 pm EDT Sunday 26 March 2017 (issued every 30 minutes, with the page automatically refreshed every 10 minutes)

About weather observations | Map of weather stations | Latest weather observations for NSW | Other Formats
Station Details ID: 065111 Name: COWRA AIRPORT AWS Lat: -33.84 Lon: 148.65 Height: 300.4 m
Data from the previous 72 hours. | See also: Recent months at Cowra
Date/Time
EDT
Temp
°C
App
Temp
°C
Dew
Point
°C
Rel
Hum
%
Delta-T
°C
Wind Press
QNH
hPa
Press
MSL
hPa
Rain since
9am
mm
Dir  Spd
km/h
Gust
km/h
Spd
kts
Gust
kts
26/05:30pm 30.7 31.2 11.6 31 11.3 CALM 0 0 0 0 1013.2 1012.1 0.0
26/05:00pm 30.9 31.2 12.3 32 11.1 NNE 2 7 1 4 1013.0 1011.9 0.0
26/04:30pm 30.8 31.0 11.7 31 11.3 ESE 2 9 1 5 1013.1 1012.0 0.0
26/04:00pm 31.2 30.4 11.6 30 11.6 SW 7 11 4 6 1013.3 1012.2 0.0
26/03:30pm 31.1 30.7 11.0 29 11.8 SW 4 11 2 6 1013.6 1012.4 0.0
26/03:00pm 30.2 29.0 10.2 29 11.5 SSE 7 13 4 7 1013.8 1012.6 0.0
26/02:30pm 30.0 29.6 12.4 34 10.5 ESE 6 11 3 6 1014.1 1012.9 0.0
26/02:00pm 29.8 29.0 11.8 33 10.6 E 7 15 4 8 1014.4 1013.2 0.0
26/01:30pm 29.2 28.7 12.6 36 9.9 E 7 13 4 7 1014.8 1013.6 0.0
26/01:00pm 28.2 28.0 13.7 41 8.7 ESE 7 13 4 7 1015.3 1014.1 0.0
26/12:30pm 27.8 28.6 16.4 50 7.2 ESE 7 13 4 7 1015.6 1014.5 0.0
26/12:00pm 27.2 28.5 17.1 54 6.4 ESE 6 11 3 6 1015.8 1014.7 0.0
26/11:30am 25.6 27.4 17.5 61 5.1 SSE 4 9 2 5 1016.3 1015.2 0.0
26/11:00am 24.6 26.2 17.8 66 4.3 ESE 6 9 3 5 1016.4 1015.3 0.0
26/10:30am 23.2 24.6 17.9 72 3.3 SE 7 11 4 6 1016.6 1015.5 0.0
26/10:00am 22.0 23.5 18.0 78 2.5 ESE 7 13 4 7 1016.4 1015.3 0.0
26/09:30am 20.7 21.6 17.5 82 2.0 SSE 9 13 5 7 1016.6 1015.5 0.0
26/09:00am 19.4 20.1 17.0 86 1.5 SE 9 13 5 7 1016.3 1015.2 0.2
26/08:30am 18.1 18.9 16.3 89 1.1 SSE 7 11 4 6 1016.2 1015.1 0.2
26/08:00am 16.8 17.7 16.2 96 0.4 SSE 6 9 3 5 1015.9 1014.8 0.2
26/07:30am 15.8 17.5 15.3 97 0.3 CALM 0 0 0 0 1015.6 1014.5 0.2
26/07:00am 16.0 17.8 15.4 96 0.4 CALM 0 0 0 0 1015.1 1013.9 0.2
26/06:30am 16.4 17.2 15.8 96 0.4 S 6 7 3 4 1014.7 1013.5 0.2
26/06:00am 16.7 17.4 15.7 94 0.6 SSE 6 9 3 5 1014.3 1013.1 0.2
26/05:30am 17.1 17.1 16.3 95 0.5 SSE 11 13 6 7 1014.2 1013.0 0.2
26/05:00am 17.0 17.9 16.2 95 0.5 SSE 6 9 3 5 1014.1 1012.9 0.2
26/04:30am 17.1 18.6 15.8 92 0.8 SW 2 6 1 3 1014.1 1012.9 0.2
26/04:00am 17.6 18.5 16.1 91 0.9 SSE 6 9 3 5 1014.1 1012.9 0.2
26/03:30am 17.9 19.2 16.2 90 1.0 S 4 7 2 4 1014.4 1013.2 0.2
26/03:00am 18.5 20.5 16.1 86 1.4 CALM 0 7 0 4 1014.3 1013.1 0.2
26/02:30am 19.2 19.7 16.6 85 1.6 S 9 11 5 6 1014.5 1013.3 0.2
26/02:00am 19.6 20.2 16.8 84 1.7 SSE 9 13 5 7 1014.6 1013.4 0.2
26/01:30am 20.1 21.3 16.9 82 2.0 SSE 6 9 3 5 1014.3 1013.1 0.2
26/01:00am 20.4 21.6 17.4 83 1.9 SSE 7 9 4 5 1014.5 1013.3 0.2
26/12:30am 20.5 21.9 17.3 82 2.0 SSE 6 9 3 5 1014.8 1013.6 0.2
26/12:00am 20.8 22.0 17.4 81 2.1 SSE 7 9 4 5 1015.0 1013.8 0.2
 
Date/Time
EDT
Temp
°C
App
Temp
°C
Dew
Point
°C
Rel
Hum
%
Delta-T
°C
Wind Press
QNH
hPa
Press
MSL
hPa
Rain since
9am
mm
Dir  Spd
km/h
Gust
km/h
Spd
kts
Gust
kts
25/11:30pm 20.9 21.4 17.5 81 2.1 S 11 15 6 8 1015.4 1014.3 0.2
25/11:00pm 21.0 21.9 17.6 81 2.1 S 9 13 5 7 1015.4 1014.3 0.2
25/10:30pm 21.2 22.4 17.4 79 2.4 S 7 11 4 6 1015.1 1013.9 0.2
25/10:00pm 21.8 22.4 17.6 77 2.6 S 11 13 6 7 1014.9 1013.7 0.2
25/09:30pm 22.2 22.8 17.8 76 2.8 SSE 11 15 6 8 1014.7 1013.5 0.2
25/09:00pm 23.0 23.2 17.7 72 3.3 SSE 13 20 7 11 1014.3 1013.1 0.2
25/08:30pm 23.8 25.3 18.9 74 3.1 SE 9 13 5 7 1013.9 1012.7 0.2
25/08:00pm 24.3 26.3 19.1 73 3.4 SSE 7 11 4 6 1013.6 1012.4 0.2
25/07:30pm 24.5 26.2 19.3 73 3.4 SSE 9 11 5 6 1013.3 1012.2 0.2
25/07:00pm 24.9 27.3 19.7 73 3.4 SE 6 7 3 4 1012.9 1011.8 0.2
25/06:30pm 25.5 29.2 19.9 71 3.7 CALM 0 0 0 0 1012.7 1011.6 0.2
25/06:00pm 26.0 29.3 19.9 69 4.0 W 2 6 1 3 1012.6 1011.5 0.2
25/05:30pm 26.4 28.3 19.0 63 4.8 W 7 9 4 5 1012.5 1011.4 0.2
25/05:00pm 26.8 29.1 19.4 64 4.8 WNW 6 7 3 4 1012.5 1011.4 0.2
25/04:30pm 27.3 29.5 19.6 62 5.1 NW 7 11 4 6 1012.6 1011.5 0.2
25/04:00pm 26.7 28.4 19.3 64 4.8 NNW 9 13 5 7 1012.7 1011.6 0.2
25/03:30pm 26.4 28.1 19.3 65 4.6 NW 9 11 5 6 1012.9 1011.8 0.2
25/03:00pm 26.1 27.9 18.8 64 4.7 WNW 7 11 4 6 1013.3 1012.2 0.2
25/02:30pm 25.6 26.8 18.3 64 4.7 NW 9 13 5 7 1013.5 1012.3 0.2
25/02:00pm 26.1 27.5 17.7 60 5.3 W 7 15 4 8 1013.9 1012.7 0.2
25/01:30pm 26.9 27.4 17.4 56 6.0 NW 11 17 6 9 1014.2 1013.0 0.2
25/01:00pm 26.1 26.0 16.9 57 5.8 NW 13 19 7 10 1014.9 1013.7 0.2
25/12:30pm 25.4 25.6 16.8 59 5.4 N 11 19 6 10 1015.1 1013.9 0.2
25/12:00pm 24.7 25.0 17.9 66 4.3 NNW 13 17 7 9 1015.5 1014.4 0.2
25/11:30am 23.3 23.7 15.4 61 4.8 NNW 7 11 4 6 1015.9 1014.8 0.0
25/11:00am 22.5 23.5 16.3 68 3.8 NNW 6 7 3 4 1016.2 1015.1 0.0
25/10:30am 20.9 21.3 15.4 71 3.3 W 7 11 4 6 1016.5 1015.4 0.0
25/10:00am 20.5 22.1 14.8 70 3.4 CALM 0 6 0 3 1016.6 1015.5 0.0
25/09:30am 19.3 20.0 15.6 79 2.2 SE 6 7 3 4 1016.5 1015.4 0.0
25/09:00am 18.3 19.5 15.9 86 1.4 ESE 4 9 2 5 1016.5 1015.4 0.0
25/08:30am 16.9 17.2 14.5 86 1.4 SE 6 11 3 6 1016.4 1015.3 0.0
25/08:00am 17.8 18.0 14.1 79 2.1 SE 6 9 3 5 1016.2 1015.1 0.0
25/07:30am 17.3 18.6 14.2 82 1.8 CALM 0 6 0 3 1016.1 1015.0 0.0
25/07:00am 17.3 17.2 13.8 80 2.0 ESE 7 9 4 5 1015.8 1014.7 0.0
25/06:30am 16.9 16.8 14.0 83 1.7 ESE 7 11 4 6 1015.8 1014.7 0.0
25/06:00am 16.6 18.2 15.0 90 0.9 CALM 0 0 0 0 1015.8 1014.7 0.0
25/05:30am 16.4 17.9 14.6 89 1.0 CALM 0 0 0 0 1015.6 1014.5 0.0
25/05:00am 16.4 17.7 14.2 87 1.3 CALM 0 0 0 0 1015.7 1014.6 0.0
25/04:30am 16.6 17.8 13.9 84 1.6 CALM 0 0 0 0 1015.8 1014.7 0.0
25/04:00am 16.6 17.8 13.9 84 1.6 CALM 0 0 0 0 1015.9 1014.8 0.0
25/03:30am 16.8 18.0 13.7 82 1.8 CALM 0 4 0 2 1016.0 1014.9 0.0
25/03:00am 16.5 16.9 13.6 83 1.7 SSW 4 7 2 4 1016.4 1015.3 0.0
25/02:30am 16.9 17.9 13.2 79 2.1 CALM 0 0 0 0 1016.6 1015.5 0.0
25/02:00am 16.8 17.7 12.9 78 2.2 CALM 0 6 0 3 1017.0 1015.8 0.0
25/01:30am 18.4 17.9 12.8 70 3.2 ESE 7 11 4 6 1017.1 1015.9 0.0
25/01:00am 18.5 18.1 12.9 70 3.2 ESE 7 13 4 7 1017.2 1016.0 0.0
25/12:30am 19.2 18.8 12.9 67 3.6 SE 7 11 4 6 1017.6 1016.4 0.0
25/12:00am 19.5 18.4 13.2 67 3.6 ESE 11 19 6 10 1017.3 1016.1 0.0
 
Date/Time
EDT
Temp
°C
App
Temp
°C
Dew
Point
°C
Rel
Hum
%
Delta-T
°C
Wind Press
QNH
hPa
Press
MSL
hPa
Rain since
9am
mm
Dir  Spd
km/h
Gust
km/h
Spd
kts
Gust
kts
24/11:30pm 19.4 18.7 13.3 68 3.5 ESE 9 11 5 6 1017.8 1016.6 0.0
24/11:00pm 19.8 19.6 13.5 67 3.6 SE 7 13 4 7 1017.9 1016.7 0.0
24/10:30pm 20.0 20.8 13.7 67 3.7 SE 2 9 1 5 1017.8 1016.6 0.0
24/10:00pm 20.2 20.5 13.4 65 3.9 ESE 4 13 2 7 1017.7 1016.5 0.0
24/09:30pm 20.6 20.0 13.6 64 4.1 ESE 9 17 5 9 1017.6 1016.4 0.0
24/09:00pm 20.9 20.4 13.8 64 4.2 ESE 9 15 5 8 1017.2 1016.0 0.0
24/08:30pm 21.6 21.1 13.8 61 4.6 E 9 13 5 7 1016.7 1015.6 0.0
24/08:00pm 22.4 21.1 13.7 58 5.1 ENE 13 17 7 9 1016.2 1015.1 0.0
24/07:30pm 22.9 21.7 13.9 57 5.3 ENE 13 26 7 14 1016.0 1014.9 0.0
24/07:00pm 23.8 21.9 14.2 55 5.7 NE 17 24 9 13 1015.7 1014.6 0.0
24/06:30pm 24.5 23.0 14.3 53 6.1 NE 15 22 8 12 1015.8 1014.7 0.0
24/06:00pm 25.8 23.9 15.2 52 6.5 NE 19 28 10 15 1015.4 1014.3 0.0
24/05:30pm 26.1 24.0 14.6 49 7.0 NE 19 28 10 15 1015.3 1014.1 0.0
24/05:00pm 26.6 25.4 15.0 49 7.1 NE 15 24 8 13 1015.3 1014.1 0.0
24/04:30pm 27.2 26.3 14.9 47 7.5 ENE 13 20 7 11 1015.3 1014.1 0.0
24/04:00pm 27.6 27.1 14.9 45 7.8 NE 11 19 6 10 1015.4 1014.3 0.0
24/03:30pm 27.5 27.1 15.2 47 7.6 E 11 20 6 11 1015.7 1014.6 0.0
24/03:00pm 26.9 27.0 15.6 50 7.0 E 9 13 5 7 1016.2 1015.1 0.0
24/02:30pm 26.8 26.3 14.9 48 7.3 E 11 17 6 9 1016.5 1015.4 0.0
24/02:00pm 26.4 26.1 14.5 48 7.2 ENE 9 19 5 10 1017.1 1015.9 0.0
24/01:30pm 26.5 26.7 15.8 51 6.6 E 9 17 5 9 1017.7 1016.5 0.0
24/01:00pm 25.8 25.2 14.6 50 6.8 E 11 19 6 10 1018.0 1016.8 0.0
24/12:30pm 25.2 24.4 15.2 54 6.1 E 13 20 7 11 1018.5 1017.4 0.0
24/12:00pm 24.7 23.8 14.8 54 6.0 E 13 20 7 11 1018.7 1017.6 0.0
24/11:30am 24.0 23.5 15.0 57 5.4 ENE 11 17 6 9 1018.9 1017.8 0.0
24/11:00am 23.0 21.9 14.3 58 5.2 E 13 20 7 11 1019.2 1018.1 0.0
24/10:30am 22.3 20.5 14.4 61 4.7 ESE 17 26 9 14 1019.1 1018.0 0.0
24/10:00am 21.9 20.2 14.8 64 4.2 E 17 26 9 14 1019.1 1018.0 0.0
24/09:30am 21.0 19.1 14.2 65 4.0 ESE 17 28 9 15 1019.0 1017.9 0.0
24/09:00am 20.4 19.3 14.3 68 3.6 ESE 13 20 7 11 1019.0 1017.9 11.6
24/08:30am 19.6 19.2 14.2 71 3.2 ESE 9 15 5 8 1018.9 1017.8 11.6
24/08:00am 18.5 18.1 14.0 75 2.6 SE 9 15 5 8 1018.5 1017.4 11.6
24/07:30am 17.5 17.1 14.0 80 2.0 SE 9 13 5 7 1018.3 1017.1 11.6
24/07:00am 17.4 16.9 13.9 80 2.0 SE 9 15 5 8 1018.1 1016.9 11.6
24/06:30am 17.7 17.3 14.0 79 2.1 SSE 9 13 5 7 1018.0 1016.8 11.6
24/06:00am 18.2 18.2 14.1 77 2.4 SE 7 13 4 7 1018.0 1016.8 11.6
24/05:30am 18.2 18.4 14.1 77 2.4 SE 6 11 3 6 1018.0 1016.8 11.6
24/05:00am 18.0 18.0 14.3 79 2.2 SE 7 13 4 7 1017.7 1016.5 11.6
24/04:30am 18.0 17.7 14.5 80 2.0 SE 9 11 5 6 1017.4 1016.2 11.6
24/04:00am 18.0 18.3 14.9 82 1.8 SSE 7 9 4 5 1017.5 1016.3 11.6
24/03:30am 17.6 17.8 14.7 83 1.7 SE 7 9 4 5 1017.6 1016.4 11.6
24/03:00am 17.7 17.5 14.6 82 1.8 SE 9 13 5 7 1017.5 1016.3 11.6
24/02:30am 17.5 17.7 14.8 84 1.6 SE 7 13 4 7 1017.6 1016.4 11.6
24/02:00am 18.0 17.8 14.7 81 1.9 ESE 9 15 5 8 1017.8 1016.6 11.6
24/01:30am 18.2 17.8 15.1 82 1.8 ESE 11 15 6 8 1017.7 1016.5 11.6
24/01:00am 18.2 18.3 15.5 84 1.6 ESE 9 15 5 8 1017.7 1016.5 11.6
24/12:30am 18.3 17.3 15.7 85 1.6 ESE 15 26 8 14 1017.6 1016.4 11.6
24/12:00am 18.1 17.4 16.3 89 1.1 ESE 15 22 8 12 1017.8 1016.6 11.6
 
Date/Time
EDT
Temp
°C
App
Temp
°C
Dew
Point
°C
Rel
Hum
%
Delta-T
°C
Wind Press
QNH
hPa
Press
MSL
hPa
Rain since
9am
mm
Dir  Spd
km/h
Gust
km/h
Spd
kts
Gust
kts
23/11:30pm 18.0 18.7 17.0 94 0.6 ESE 9 15 5 8 1018.0 1016.8 11.6
23/11:00pm 18.3 17.0 16.8 91 0.9 ESE 19 26 10 14 1018.0 1016.8 11.2
23/10:30pm 19.0 19.1 16.6 86 1.5 ESE 11 24 6 13 1018.5 1017.4 8.6
23/10:00pm 20.7 21.0 15.9 74 2.9 SE 9 17 5 9 1017.8 1016.6 3.8
23/09:30pm 20.5 19.7 16.1 76 2.7 SE 15 20 8 11 1017.2 1016.0 3.8
23/09:00pm 20.6 20.1 16.0 75 2.8 SSE 13 20 7 11 1016.7 1015.6 3.8
23/08:30pm 20.9 20.6 16.5 76 2.7 SE 13 20 7 11 1016.3 1015.2 3.8
23/08:00pm 21.0 20.2 16.2 74 2.9 SE 15 22 8 12 1016.0 1014.9 3.8
23/07:30pm 21.3 20.3 16.5 74 2.9 SE 17 22 9 12 1015.7 1014.6 3.8
23/07:00pm 21.3 20.7 16.7 75 2.8 SE 15 20 8 11 1015.8 1014.7 3.8
23/06:30pm 21.4 20.9 16.8 75 2.8 SE 15 24 8 13 1015.2 1014.0 3.8

Other Formats:

Comma delimited format used in spreadsheet applications
http://www.bom.gov.au/fwo/IDN60801/IDN60801.95721.axf

JavaScript Object Notation format (JSON) in row-major order
http://www.bom.gov.au/fwo/IDN60801/IDN60801.95721.json